SCDD weather

Don Dobri Airport
Puerto Varas, Los Lagos Region, Chile

Public forecast

Using degrees Celsius for public forecast. Weather courtesy of forecast.io.

METAR (pilot weather report)

Closest report is El Tepual Airport, 28.8 nm (53.4 km) WSW. Retrieved 2019/04/23 16:00 UTC (8 minutes ago):

SCTE 231600Z 16010KT 9999 BKN017 12/08 Q1019 NOSIG

TAF (pilot weather forecast)

Closest forecast is El Tepual Airport, 28.8 nm (53.4 km) WSW. Retrieved 2019/04/23 12:00 UTC (4 hours ago):

TAF SCTE 231001Z 2312/2412 18012KT 9999 OVC012 TX13/2320Z TN08/2410Z BECMG 2314/2316 BKN020 BECMG 2318/2320 17010KT SCT030 BECMG 2401/2403 CAVOK TEMPO 2406/2412 VRB03KT 0500 FG VV002